Hertogenbosch, Netherlands
Current Conditions -  °F | °C
As of 6:55 PM on Friday 21 Nov 2014 (Local Time) from EHAM Reporting Station
Clear Clear  
Wind Chill: 38°   Ceiling: Unl
Heat Index: 45°   Visibility: 6mi
Dew Point: 39°   Wind: 13mph
Humidity: 81%   Direction: 90°E
Pressure: 30.12"   Gusts: NA
Location:  52.09°N, 5.24°E
Report Text: EHAM 211755Z 09011KT CAVOK 07/04 Q1020 NOSIG
Loading
Personal Weather Stations






























Interactive Weather Map New forecast layout! Learn more

10-Day Weather Forecast

Advertisements
Track Severe Weather on mobile